This is the latest recevied weather packets stored in our database for station/object CE7LGA-10. If no packets are shown the sender has not sent any weather packets the latest 10 day(s).
| Time | Temp. | Humidity | Pressure | Rain* | Wind** | Luminosity | Snow |
|---|---|---|---|---|---|---|---|
| 1777908130 | 14.44° C | 74% | 1000.6 hPa | - | - | - | - |
| 1777907230 | 14.44° C | 74% | 1000.1 hPa | - | - | - | - |
| 1777906330 | 14.44° C | 73% | 999.8 hPa | - | - | - | - |
| 1777905430 | 14.44° C | 73% | 1000 hPa | - | - | - | - |
| 1777904530 | 15° C | 73% | 1000.2 hPa | - | - | - | - |
| 1777903630 | 14.44° C | 73% | 1000.3 hPa | - | - | - | - |
| 1777902730 | 15° C | 73% | 1000.4 hPa | - | - | - | - |
| 1777901830 | 15° C | 73% | 1000.4 hPa | - | - | - | - |
| 1777900930 | 15° C | 74% | 1000.5 hPa | - | - | - | - |
| 1777900029 | 15° C | 74% | 1000.8 hPa | - | - | - | - |
| 1777899129 | 15° C | 74% | 1001 hPa | - | - | - | - |
| 1777898231 | 15° C | 76% | 1000.8 hPa | - | - | - | - |
| 1777897331 | 15° C | 76% | 1000.6 hPa | - | - | - | - |
| 1777896431 | 15° C | 76% | 1000.5 hPa | - | - | - | - |
| 1777895531 | 15° C | 76% | 1000.3 hPa | - | - | - | - |
| 1777894631 | 15.56° C | 81% | 1000.2 hPa | - | - | - | - |
| 1777893731 | 15° C | 82% | 1000.2 hPa | - | - | - | - |
| 1777892830 | 14.44° C | 83% | 1000.2 hPa | - | - | - | - |
| 1777891930 | 13.89° C | 80% | 1000.4 hPa | - | - | - | - |
| 1777891030 | 12.78° C | 74% | 1000.6 hPa | - | - | - | - |
| 1777890130 | 12.78° C | 74% | 1000.8 hPa | - | - | - | - |
| 1777889230 | 13.33° C | 72% | 1000.9 hPa | - | - | - | - |
| 1777888330 | 13.33° C | 73% | 1000.8 hPa | - | - | - | - |
| 1777887430 | 13.33° C | 73% | 1001.3 hPa | - | - | - | - |
| 1777886530 | 13.33° C | 73% | 1001.4 hPa | - | - | - | - |
* Rain since midnight (hover to see other rain measurements)
** Current wind speed in m/s (hover to see current wind gust speed)